Aeroporto :
LOGIN :

Iscrizione | Disclaimer

   EN    FR    IT 

 










Sommario :    VFR   VFR Marginale   IFR   IFR Intensivo   IFR Molto Intensivo
Visibilità : 
Base nubi : 
>= 8 km
>= 3000ft
5 / 8 km
1000 / 3000 ft
1500m / 5 km
500 / 1000 ft
800 / 1500m
200 / 500 ft
< 800m
< 200 ft
Simboli :   Temporali  Nebbia  Neve Forte  Precipitazioni Forti  Vento > 20 kt
SIGMETs :   Varie  Temporali  Ghiacco  Turbolenza  Onda orograficha  Ceneri Vulcaniche






- Altitudine del aeroporto : 1161 ft
- Codice IATA : RJL


LELO - Logroño-Agoncillo

ULTIMO METAR :
  • 291400Z AUTO VRB02KT 9999 FEW055 BKN065 17/07 Q1007

METARs OBSOLETI :
  • 291330Z AUTO 08003KT 020V130 9999 BKN066 16/07 Q1007
  • 291300Z AUTO 12006KT 080V140 9999 BKN066 16/07 Q1008
  • 291230Z AUTO 09004KT 040V180 9999 BKN066 15/08 Q1008
  • 291200Z AUTO 08004KT 020V120 9999 BKN067 15/06 Q1008
  • 291130Z AUTO 04005KT 300V100 9999 BKN060 BKN070 13/07 Q1009

TAF TAF LELO
Valido dal 29 a 12 ore il 29 a 21 ore UTC


291100Z 2912/2921 09010KT 9999 FEW030 BKN045
BECMG 2912/2913 27018KT
PROB40
TEMPO 2913/2919 27020G32KT
PROB30
TEMPO 2913/2918 27025G40KT
BECMG 2919/2921 VRB05KT



MetMap, La meteo Aeronautica in un colpo d'occhio ! - Copyright ORBIFLY Dicembre 2007 - Disclaimer

ORBIFLY MET'MAP TEAM :

Programmazione e sviluppo : Alexandra Zaïnal
Concezione : Baudouin d'Aumeries
Aiuto per la programmazione : Marc-Olivier Méhu
Supporto tecnico e logistico : Manuel Goepfert
Aiuto per la traduzione : Arnaldo La Scala

Contatto : metmap@orbifly.com




FONTI E CREDITI :

   NOAA